Terminal Aerodrome Forecast
Issued by NWS Upton, NY

Home | Current Version | Previous Version | Text Only | Print | Product List | Glossary On
Versions: 1 2 3 4 5 6 7 8 9 10 11 12 13 14 15 16 17 18 19 20 21 22 23 24 25
877
FTUS41 KOKX 122339
TAFEWR
TAF
KEWR 122339Z 1300/1406 25007KT P6SM BKN070
     FM130700 26011G18KT P6SM SCT025 BKN040
     FM130900 29018G26KT P6SM SCT040 BKN080
     FM131300 31026G35KT P6SM SCT050
     FM140400 31020G32KT P6SM SCT050=

USA.gov is the U.S. government's official web portal to all federal, state and local government web resources and services.